Time;durP1;ratioP1;P1;durP2;ratioP2;P2;SDS_P1;SDS_P2;PMS_P1;PMS_P2;Temp;Humidity;BMP_temperature;BMP_pressure;BME280_temperature;BME280_humidity;BME280_pressure;Samples;Min_cycle;Max_cycle;Signal;HPM_P1;HPM_P2
2023/07/20 00:00:22;;;;;;;;;4.00;4.00;;;;;;;;4999335;28;47223;-79
2023/07/20 00:02:49;;;;;;;;;5.33;5.33;;;;;;;;5015277;28;45543;-81
2023/07/20 00:05:18;;;;;;;;;7.67;4.33;;;;;;;;5016332;28;45862;-79
2023/07/20 00:07:43;;;;;;;;;4.00;4.00;;;;;;;;5017133;28;45820;-81
2023/07/20 00:10:08;;;;;;;;;6.00;6.00;;;;;;;;5016312;28;45522;-79
2023/07/20 00:12:33;;;;;;;;;5.33;4.33;;;;;;;;5002546;28;45480;-79
2023/07/20 00:14:59;;;;;;;;;6.33;4.67;;;;;;;;5022588;28;45458;-80
2023/07/20 00:17:24;;;;;;;;;3.33;3.33;;;;;;;;5024343;28;45983;-81
2023/07/20 00:19:49;;;;;;;;;3.67;3.67;;;;;;;;5001457;28;46830;-81
2023/07/20 00:22:14;;;;;;;;;4.00;4.00;;;;;;;;5014413;28;45943;-78
2023/07/20 00:24:40;;;;;;;;;4.67;4.67;;;;;;;;5012061;28;45490;-79
2023/07/20 00:27:05;;;;;;;;;4.00;4.00;;;;;;;;5024043;28;45900;-79
2023/07/20 00:29:31;;;;;;;;;6.33;4.00;;;;;;;;5003701;28;47123;-81
2023/07/20 00:31:56;;;;;;;;;5.33;4.00;;;;;;;;5018103;28;45530;-79
2023/07/20 00:34:21;;;;;;;;;3.67;3.67;;;;;;;;5033423;28;45517;-78
2023/07/20 00:36:48;;;;;;;;;4.00;4.00;;;;;;;;5019995;28;45582;-80
2023/07/20 00:39:14;;;;;;;;;3.00;3.00;;;;;;;;5000359;28;45587;-80
2023/07/20 00:41:39;;;;;;;;;6.00;5.00;;;;;;;;5004234;28;45425;-81
2023/07/20 00:44:04;;;;;;;;;6.33;4.67;;;;;;;;5015779;28;45285;-80
2023/07/20 00:46:32;;;;;;;;;3.00;3.00;;;;;;;;5022535;28;45428;-79
2023/07/20 00:48:57;;;;;;;;;7.00;4.67;;;;;;;;4997617;28;46679;-81
2023/07/20 00:51:23;;;;;;;;;4.00;3.00;;;;;;;;5019008;28;45292;-80
2023/07/20 00:53:48;;;;;;;;;6.33;3.33;;;;;;;;4984841;28;45795;-80
2023/07/20 00:56:15;;;;;;;;;6.00;5.00;;;;;;;;5016953;28;45538;-80
2023/07/20 00:58:40;;;;;;;;;4.00;2.00;;;;;;;;5007513;28;46649;-82
2023/07/20 01:01:08;;;;;;;;;7.00;4.00;;;;;;;;5023244;28;45459;-81
2023/07/20 01:03:33;;;;;;;;;3.00;3.00;;;;;;;;5013875;28;45692;-79
2023/07/20 01:06:18;;;;;;;;;4.33;4.00;;;;;;;;5014153;28;45582;-82
2023/07/20 01:08:47;;;;;;;;;3.33;3.33;;;;;;;;5025977;28;45522;-80
2023/07/20 01:11:16;;;;;;;;;5.33;4.33;;;;;;;;5002882;28;45393;-83
2023/07/20 01:13:42;;;;;;;;;3.00;3.00;;;;;;;;5015293;28;45547;-80
2023/07/20 01:16:07;;;;;;;;;4.00;3.00;;;;;;;;5021563;28;45704;-79
2023/07/20 01:18:33;;;;;;;;;5.33;3.67;;;;;;;;5028638;28;46202;-81
2023/07/20 01:21:01;;;;;;;;;6.00;5.00;;;;;;;;5020979;28;45569;-80
2023/07/20 01:23:46;;;;;;;;;6.00;4.33;;;;;;;;5014734;28;45771;-79
2023/07/20 01:26:27;;;;;;;;;5.67;4.67;;;;;;;;5001793;28;46152;-79
2023/07/20 01:28:52;;;;;;;;;5.67;4.67;;;;;;;;4994918;28;48034;-78
2023/07/20 01:31:26;;;;;;;;;4.33;4.33;;;;;;;;4996065;28;45991;-79
2023/07/20 01:33:53;;;;;;;;;5.00;5.00;;;;;;;;4987849;28;45904;-77
2023/07/20 01:36:19;;;;;;;;;3.33;3.33;;;;;;;;5016463;28;46043;-80
2023/07/20 01:38:46;;;;;;;;;3.00;3.00;;;;;;;;5027473;28;46259;-80
2023/07/20 01:41:11;;;;;;;;;6.67;4.00;;;;;;;;5005163;28;45546;-77
2023/07/20 01:43:36;;;;;;;;;5.00;3.67;;;;;;;;5008972;28;45423;-78
2023/07/20 01:46:02;;;;;;;;;5.00;5.00;;;;;;;;5013370;28;45579;-79
2023/07/20 01:48:27;;;;;;;;;7.33;7.33;;;;;;;;5012592;28;45857;-79
2023/07/20 01:50:52;;;;;;;;;6.00;4.33;;;;;;;;5011831;28;45676;-78
2023/07/20 01:53:18;;;;;;;;;8.67;7.33;;;;;;;;5021496;28;45416;-77
2023/07/20 01:55:43;;;;;;;;;7.67;3.67;;;;;;;;5032205;28;45718;-78
2023/07/20 01:58:08;;;;;;;;;4.00;4.00;;;;;;;;5002524;28;47222;-79
2023/07/20 02:00:34;;;;;;;;;9.67;9.33;;;;;;;;5020286;28;45802;-79
2023/07/20 02:02:59;;;;;;;;;7.67;3.67;;;;;;;;5035359;28;45740;-79
2023/07/20 02:05:25;;;;;;;;;6.00;6.00;;;;;;;;5015889;28;47214;-79
2023/07/20 02:07:50;;;;;;;;;12.67;8.67;;;;;;;;5034053;28;45584;-78
2023/07/20 02:10:16;;;;;;;;;9.33;6.00;;;;;;;;5013287;28;46226;-82
2023/07/20 02:12:41;;;;;;;;;9.33;8.67;;;;;;;;5009617;28;46243;-81
2023/07/20 02:15:08;;;;;;;;;25.67;17.67;;;;;;;;5035152;28;45520;-79
2023/07/20 02:17:33;;;;;;;;;14.33;12.00;;;;;;;;5036482;28;45878;-79
2023/07/20 02:19:59;;;;;;;;;27.00;18.67;;;;;;;;5022971;28;45832;-80
2023/07/20 02:22:24;;;;;;;;;16.00;12.33;;;;;;;;4999537;28;45814;-79
2023/07/20 02:24:50;;;;;;;;;8.00;8.00;;;;;;;;4998190;28;45787;-78
2023/07/20 02:27:15;;;;;;;;;13.67;12.00;;;;;;;;5017229;28;45685;-78
2023/07/20 02:29:40;;;;;;;;;11.67;9.67;;;;;;;;5022431;28;45478;-79
2023/07/20 02:32:06;;;;;;;;;22.33;18.00;;;;;;;;5022874;28;46038;-81
2023/07/20 02:34:31;;;;;;;;;13.00;11.67;;;;;;;;5017687;28;46053;-81
2023/07/20 02:36:58;;;;;;;;;6.00;6.00;;;;;;;;5037104;28;45997;-80
2023/07/20 02:39:24;;;;;;;;;7.67;6.33;;;;;;;;5018105;28;45517;-80
2023/07/20 02:41:49;;;;;;;;;11.33;10.67;;;;;;;;5018245;28;45650;-81
2023/07/20 02:44:14;;;;;;;;;9.33;9.00;;;;;;;;5000377;28;45584;-82
2023/07/20 02:46:39;;;;;;;;;13.33;11.67;;;;;;;;5026780;28;45390;-80
2023/07/20 02:49:05;;;;;;;;;6.33;5.33;;;;;;;;5028123;28;45380;-81
2023/07/20 02:51:30;;;;;;;;;9.00;9.00;;;;;;;;5024889;28;45498;-81
2023/07/20 02:53:55;;;;;;;;;7.00;7.00;;;;;;;;5018509;28;45491;-79
2023/07/20 02:56:22;;;;;;;;;7.67;5.00;;;;;;;;5022443;28;45898;-80
2023/07/20 02:58:48;;;;;;;;;10.67;7.33;;;;;;;;5013434;28;45924;-80
2023/07/20 03:01:15;;;;;;;;;5.33;5.33;;;;;;;;5012441;28;45823;-78
2023/07/20 03:03:40;;;;;;;;;11.67;10.00;;;;;;;;4988394;28;45349;-78
2023/07/20 03:06:08;;;;;;;;;9.67;9.33;;;;;;;;4996682;28;47412;-80
2023/07/20 03:08:33;;;;;;;;;7.33;7.33;;;;;;;;4993201;28;45813;-80
2023/07/20 03:10:59;;;;;;;;;5.33;4.67;;;;;;;;5002605;28;45686;-77
2023/07/20 03:13:24;;;;;;;;;12.33;9.33;;;;;;;;4998680;28;45712;-78
2023/07/20 03:15:49;;;;;;;;;5.67;4.67;;;;;;;;5004769;28;45592;-78
2023/07/20 03:18:14;;;;;;;;;6.67;5.00;;;;;;;;4981358;28;45903;-78
2023/07/20 03:20:40;;;;;;;;;9.00;7.00;;;;;;;;4980896;28;45374;-79
2023/07/20 03:23:05;;;;;;;;;7.33;7.33;;;;;;;;4999370;28;45458;-79
2023/07/20 03:25:30;;;;;;;;;9.33;7.67;;;;;;;;4995281;28;46102;-77
2023/07/20 03:27:56;;;;;;;;;6.67;6.33;;;;;;;;4981284;28;45824;-78
2023/07/20 03:30:21;;;;;;;;;8.33;6.00;;;;;;;;5010829;28;45609;-79
2023/07/20 03:32:46;;;;;;;;;8.67;8.00;;;;;;;;4978942;28;45950;-78
2023/07/20 03:35:12;;;;;;;;;4.67;4.67;;;;;;;;4995845;28;45819;-79
2023/07/20 03:37:38;;;;;;;;;9.00;8.00;;;;;;;;4987267;28;45647;-78
2023/07/20 03:40:04;;;;;;;;;5.00;5.00;;;;;;;;5013765;28;45742;-77
2023/07/20 03:42:29;;;;;;;;;5.00;5.00;;;;;;;;4997242;28;45520;-78
2023/07/20 03:44:55;;;;;;;;;8.67;6.67;;;;;;;;4978378;28;47540;-78
2023/07/20 03:47:20;;;;;;;;;6.67;6.67;;;;;;;;4992975;28;45715;-80
2023/07/20 03:49:46;;;;;;;;;4.67;4.67;;;;;;;;5013250;28;45779;-79
2023/07/20 03:52:11;;;;;;;;;7.67;4.00;;;;;;;;4984070;28;45834;-80
2023/07/20 03:54:36;;;;;;;;;5.00;5.00;;;;;;;;4995593;28;46022;-79
2023/07/20 03:57:01;;;;;;;;;7.33;5.00;;;;;;;;5008283;28;44849;-78
2023/07/20 03:59:27;;;;;;;;;8.00;6.33;;;;;;;;4995922;28;45922;-80
2023/07/20 04:01:52;;;;;;;;;6.67;5.67;;;;;;;;4997328;28;45913;-81
2023/07/20 04:04:18;;;;;;;;;7.33;4.67;;;;;;;;4994898;28;46598;-80
2023/07/20 04:06:46;;;;;;;;;4.67;4.67;;;;;;;;4993233;28;45498;-78
2023/07/20 04:09:12;;;;;;;;;4.67;4.67;;;;;;;;4977404;28;45569;-79
2023/07/20 04:11:38;;;;;;;;;6.00;4.33;;;;;;;;4975590;28;46705;-80
2023/07/20 04:14:03;;;;;;;;;5.00;5.00;;;;;;;;4984818;28;45880;-81
2023/07/20 04:16:28;;;;;;;;;7.00;6.33;;;;;;;;4988874;28;45963;-80
2023/07/20 04:18:57;;;;;;;;;7.00;4.67;;;;;;;;4984611;28;45736;-80
2023/07/20 04:21:23;;;;;;;;;6.00;4.33;;;;;;;;5009524;28;45827;-80
2023/07/20 04:23:48;;;;;;;;;5.00;5.00;;;;;;;;5003620;28;45864;-80
2023/07/20 04:26:14;;;;;;;;;5.33;3.67;;;;;;;;4997819;28;45813;-81
2023/07/20 04:28:42;;;;;;;;;5.00;4.00;;;;;;;;4975188;28;45882;-79
2023/07/20 04:31:12;;;;;;;;;5.67;5.67;;;;;;;;4974888;28;46193;-81
2023/07/20 04:33:37;;;;;;;;;9.33;5.00;;;;;;;;4978218;28;47175;-79
2023/07/20 04:36:02;;;;;;;;;4.67;4.67;;;;;;;;4992761;28;45496;-80
2023/07/20 04:38:28;;;;;;;;;4.00;4.00;;;;;;;;5000186;28;45596;-79
2023/07/20 04:40:53;;;;;;;;;5.33;5.33;;;;;;;;5003390;28;45448;-79
2023/07/20 04:43:18;;;;;;;;;14.33;14.33;;;;;;;;5006650;28;45435;-78
2023/07/20 04:45:44;;;;;;;;;9.33;7.33;;;;;;;;5006654;28;45493;-81
2023/07/20 04:48:11;;;;;;;;;9.00;9.00;;;;;;;;4997039;28;45745;-80
2023/07/20 04:50:36;;;;;;;;;10.00;8.67;;;;;;;;4995103;28;45666;-81
2023/07/20 04:53:02;;;;;;;;;10.33;9.33;;;;;;;;4986977;28;48121;-80
2023/07/20 04:55:27;;;;;;;;;15.67;10.67;;;;;;;;4978568;28;45802;-81
2023/07/20 04:57:53;;;;;;;;;24.67;21.33;;;;;;;;4992921;28;45517;-79
2023/07/20 05:00:19;;;;;;;;;10.00;6.33;;;;;;;;5010571;28;45506;-78
2023/07/20 05:02:44;;;;;;;;;11.67;11.67;;;;;;;;4998395;28;46012;-80
2023/07/20 05:05:09;;;;;;;;;5.33;5.33;;;;;;;;5020971;28;45752;-80
2023/07/20 05:07:35;;;;;;;;;5.00;4.25;;;;;;;;5022116;28;45789;-79
2023/07/20 05:10:00;;;;;;;;;4.00;3.50;;;;;;;;5005685;28;45403;-81
2023/07/20 05:12:27;;;;;;;;;2.00;2.00;;;;;;;;4988014;28;45734;-79
2023/07/20 05:14:52;;;;;;;;;4.67;4.00;;;;;;;;5013251;28;45436;-80
2023/07/20 05:17:18;;;;;;;;;6.00;5.50;;;;;;;;5010769;28;45554;-79
2023/07/20 05:19:44;;;;;;;;;4.00;4.00;;;;;;;;5013355;28;46251;-80
2023/07/20 05:22:12;;;;;;;;;5.00;4.00;;;;;;;;5002418;28;46379;-81
2023/07/20 05:24:37;;;;;;;;;2.50;2.50;;;;;;;;5005330;28;45423;-80
2023/07/20 05:27:03;;;;;;;;;4.00;3.00;;;;;;;;5029484;28;45477;-79
2023/07/20 05:29:28;;;;;;;;;4.00;4.00;;;;;;;;5012149;28;45579;-79
2023/07/20 05:31:54;;;;;;;;;4.50;3.00;;;;;;;;5031135;28;46435;-80
2023/07/20 05:34:22;;;;;;;;;4.00;4.00;;;;;;;;5031676;28;45452;-79
2023/07/20 05:36:50;;;;;;;;;3.75;3.75;;;;;;;;5027742;28;45500;-81
2023/07/20 05:39:18;;;;;;;;;4.25;3.00;;;;;;;;5030334;28;46101;-79
2023/07/20 05:41:43;;;;;;;;;3.00;3.00;;;;;;;;5031924;28;47008;-82
2023/07/20 05:44:09;;;;;;;;;4.00;2.25;;;;;;;;5028939;28;46030;-80
2023/07/20 05:46:34;;;;;;;;;1.25;0.75;;;;;;;;5015116;28;45552;-81
2023/07/20 05:49:00;;;;;;;;;2.75;2.00;;;;;;;;5019950;28;46108;-80
2023/07/20 05:51:25;;;;;;;;;3.75;3.00;;;;;;;;5011295;28;46729;-79
2023/07/20 05:53:50;;;;;;;;;5.00;2.50;;;;;;;;4999818;28;45615;-76
2023/07/20 05:56:16;;;;;;;;;3.00;2.50;;;;;;;;5034921;28;45938;-78
2023/07/20 05:58:41;;;;;;;;;3.00;3.00;;;;;;;;5033613;28;45778;-78
2023/07/20 06:01:07;;;;;;;;;4.50;3.25;;;;;;;;5024875;28;45790;-76
2023/07/20 06:03:33;;;;;;;;;5.00;3.50;;;;;;;;5019929;28;45274;-75
2023/07/20 06:06:00;;;;;;;;;8.00;3.50;;;;;;;;5021277;28;45435;-75
2023/07/20 06:08:26;;;;;;;;;4.25;4.25;;;;;;;;5023353;28;45997;-74
2023/07/20 06:10:51;;;;;;;;;7.75;5.00;;;;;;;;5000064;28;46099;-76
2023/07/20 06:13:17;;;;;;;;;6.00;4.00;;;;;;;;5000804;28;45687;-77
2023/07/20 06:15:43;;;;;;;;;6.00;6.00;;;;;;;;5017967;28;45728;-76
2023/07/20 06:18:08;;;;;;;;;5.50;5.50;;;;;;;;5018824;28;45623;-78
2023/07/20 06:20:34;;;;;;;;;4.50;4.25;;;;;;;;5014170;28;45948;-78
2023/07/20 06:22:59;;;;;;;;;4.50;4.00;;;;;;;;5005400;28;45324;-79
2023/07/20 06:25:24;;;;;;;;;6.00;5.25;;;;;;;;5016040;28;46017;-77
2023/07/20 06:27:53;;;;;;;;;4.25;4.25;;;;;;;;5015729;28;45864;-76
2023/07/20 06:30:18;;;;;;;;;6.25;3.00;;;;;;;;4994300;28;47217;-79
2023/07/20 06:32:44;;;;;;;;;4.00;4.00;;;;;;;;5018243;28;45740;-78
2023/07/20 06:35:09;;;;;;;;;3.25;2.50;;;;;;;;5018613;28;45960;-78
2023/07/20 06:37:50;;;;;;;;;6.00;5.50;;;;;;;;5030844;28;45835;-77
2023/07/20 06:40:16;;;;;;;;;4.75;4.75;;;;;;;;5014883;28;45952;-82
2023/07/20 06:42:42;;;;;;;;;7.50;6.50;;;;;;;;5029389;28;45865;-83
2023/07/20 06:45:07;;;;;;;;;5.25;5.25;;;;;;;;5021592;28;45417;-84
2023/07/20 06:47:32;;;;;;;;;5.75;5.75;;;;;;;;5024110;28;45609;-84
2023/07/20 06:49:59;;;;;;;;;5.25;5.25;;;;;;;;5022009;28;46265;-84
2023/07/20 06:52:24;;;;;;;;;5.75;5.75;;;;;;;;5006568;28;45469;-81
2023/07/20 06:54:50;;;;;;;;;5.00;3.75;;;;;;;;5017279;28;45501;-81
2023/07/20 06:57:15;;;;;;;;;4.50;4.50;;;;;;;;4998071;28;45829;-83
2023/07/20 06:59:40;;;;;;;;;5.25;5.25;;;;;;;;5016780;28;45967;-82
2023/07/20 07:02:06;;;;;;;;;5.00;4.00;;;;;;;;5026661;28;45846;-82
2023/07/20 07:04:31;;;;;;;;;8.00;7.00;;;;;;;;4999913;28;46237;-82
2023/07/20 07:06:56;;;;;;;;;4.25;4.25;;;;;;;;5027748;28;45742;-82
2023/07/20 07:09:22;;;;;;;;;4.25;4.25;;;;;;;;5009956;28;46087;-82
2023/07/20 07:11:48;;;;;;;;;8.75;6.75;;;;;;;;5015465;28;45596;-81
2023/07/20 07:14:14;;;;;;;;;6.50;6.50;;;;;;;;5016077;28;45522;-83
2023/07/20 07:16:40;;;;;;;;;9.00;6.25;;;;;;;;5016661;28;46028;-83
2023/07/20 07:19:07;;;;;;;;;8.25;7.00;;;;;;;;5018753;28;46093;-81
2023/07/20 07:21:32;;;;;;;;;6.25;5.50;;;;;;;;5019050;28;45478;-84
2023/07/20 07:23:59;;;;;;;;;6.50;6.50;;;;;;;;5016946;28;45386;-82
2023/07/20 07:26:24;;;;;;;;;4.75;4.75;;;;;;;;5022263;28;45973;-84
2023/07/20 07:28:50;;;;;;;;;6.50;4.75;;;;;;;;5017346;28;45869;-88
2023/07/20 07:31:15;;;;;;;;;5.00;4.25;;;;;;;;5022912;28;45446;-80
2023/07/20 07:33:40;;;;;;;;;8.00;5.33;;;;;;;;5025526;28;45709;-81
2023/07/20 07:36:06;;;;;;;;;5.75;4.50;;;;;;;;5021308;28;45542;-82
2023/07/20 07:38:31;;;;;;;;;4.75;4.75;;;;;;;;5000990;28;46902;-82
2023/07/20 07:40:57;;;;;;;;;5.00;5.00;;;;;;;;5015721;28;45888;-81
2023/07/20 07:43:23;;;;;;;;;6.50;6.00;;;;;;;;4998210;28;45627;-82
2023/07/20 07:45:48;;;;;;;;;6.50;5.25;;;;;;;;5013403;28;45400;-84
2023/07/20 07:48:14;;;;;;;;;6.50;4.25;;;;;;;;5014035;28;46683;-80
2023/07/20 07:53:32;;;;;;;;;8.00;5.75;;;;;;;;5017120;28;45367;-82
2023/07/20 07:55:57;;;;;;;;;10.00;8.00;;;;;;;;5018843;28;46201;-81
2023/07/20 07:58:23;;;;;;;;;6.50;4.00;;;;;;;;5014156;28;45455;-81
2023/07/20 08:00:48;;;;;;;;;8.00;8.00;;;;;;;;5015801;28;45522;-80
2023/07/20 08:03:13;;;;;;;;;7.00;7.00;;;;;;;;5016050;28;45728;-81
2023/07/20 08:05:39;;;;;;;;;10.33;10.33;;;;;;;;5027698;28;45383;-78
2023/07/20 08:08:08;;;;;;;;;14.00;13.00;;;;;;;;5018270;28;45676;-77
2023/07/20 08:10:33;;;;;;;;;9.67;5.00;;;;;;;;5005800;28;45850;-77
2023/07/20 08:12:58;;;;;;;;;6.00;5.00;;;;;;;;5015568;28;45749;-73
2023/07/20 08:15:24;;;;;;;;;7.67;7.00;;;;;;;;4986149;28;46187;-73
2023/07/20 08:17:51;;;;;;;;;8.67;8.67;;;;;;;;5016183;28;46740;-73
2023/07/20 08:20:17;;;;;;;;;5.67;4.00;;;;;;;;4997966;28;45713;-73
2023/07/20 08:22:42;;;;;;;;;3.00;3.00;;;;;;;;5009968;28;45752;-73
2023/07/20 08:25:08;;;;;;;;;6.00;6.00;;;;;;;;5017958;28;46419;-72
2023/07/20 08:27:33;;;;;;;;;5.67;5.67;;;;;;;;5011432;28;46371;-73
2023/07/20 08:29:58;;;;;;;;;4.67;4.00;;;;;;;;5015384;28;45507;-73
2023/07/20 08:32:25;;;;;;;;;4.67;4.67;;;;;;;;5021368;28;45856;-72
2023/07/20 08:34:50;;;;;;;;;4.33;4.33;;;;;;;;5023158;28;45833;-73
2023/07/20 08:37:15;;;;;;;;;6.00;5.00;;;;;;;;5002508;28;47194;-72
2023/07/20 08:39:41;;;;;;;;;4.67;4.67;;;;;;;;5014770;28;45595;-74
2023/07/20 08:42:06;;;;;;;;;5.00;5.00;;;;;;;;5010451;28;45493;-74
2023/07/20 08:44:36;;;;;;;;;4.00;4.00;;;;;;;;4999297;28;46338;-73
2023/07/20 08:47:03;;;;;;;;;3.33;3.33;;;;;;;;5009352;28;45845;-72
2023/07/20 08:49:29;;;;;;;;;4.67;4.67;;;;;;;;4999590;28;45038;-74
2023/07/20 08:51:55;;;;;;;;;3.00;3.00;;;;;;;;5016604;28;45736;-72
2023/07/20 08:54:20;;;;;;;;;4.00;3.00;;;;;;;;5021361;28;45439;-72
2023/07/20 08:56:54;;;;;;;;;5.00;4.00;;;;;;;;5018039;28;45479;-73
2023/07/20 08:59:22;;;;;;;;;4.00;3.33;;;;;;;;5011237;28;45691;-74
2023/07/20 09:01:48;;;;;;;;;4.00;2.00;;;;;;;;5010940;28;45473;-72
2023/07/20 09:04:13;;;;;;;;;2.67;2.67;;;;;;;;5014038;28;45713;-73
2023/07/20 09:06:38;;;;;;;;;6.33;4.00;;;;;;;;5009641;28;45384;-72
2023/07/20 09:09:04;;;;;;;;;3.00;3.00;;;;;;;;5020661;28;45464;-72
2023/07/20 09:11:29;;;;;;;;;3.00;3.00;;;;;;;;5024321;28;45493;-73
2023/07/20 09:14:07;;;;;;;;;3.33;2.00;;;;;;;;5024416;28;45795;-72
2023/07/20 09:16:46;;;;;;;;;4.00;2.00;;;;;;;;5009662;28;46627;-73
2023/07/20 09:19:12;;;;;;;;;3.00;3.00;;;;;;;;4993765;28;45768;-72
2023/07/20 09:21:37;;;;;;;;;19.67;19.67;;;;;;;;5018342;28;45386;-73
2023/07/20 09:24:03;;;;;;;;;37.67;33.00;;;;;;;;5026179;28;45942;-73
2023/07/20 09:26:28;;;;;;;;;15.67;14.67;;;;;;;;5022218;28;46590;-72
2023/07/20 09:28:55;;;;;;;;;5.67;5.67;;;;;;;;5003294;28;45477;-76
2023/07/20 09:31:40;;;;;;;;;3.00;3.00;;;;;;;;5013822;28;45486;-85
2023/07/20 09:34:06;;;;;;;;;4.67;4.67;;;;;;;;5011388;28;45609;-74
2023/07/20 09:36:33;;;;;;;;;5.00;5.00;;;;;;;;5011569;28;46697;-72
2023/07/20 09:38:59;;;;;;;;;4.67;4.00;;;;;;;;5011954;28;45985;-73
2023/07/20 09:41:25;;;;;;;;;2.67;2.67;;;;;;;;5011404;28;45561;-72
2023/07/20 09:43:50;;;;;;;;;4.33;2.33;;;;;;;;5013024;28;45514;-73
2023/07/20 09:46:17;;;;;;;;;1.00;1.00;;;;;;;;4993576;28;47005;-74
2023/07/20 09:48:51;;;;;;;;;2.33;2.33;;;;;;;;5016019;28;45823;-74
2023/07/20 09:51:17;;;;;;;;;3.00;3.00;;;;;;;;5022209;28;45578;-76
2023/07/20 09:53:43;;;;;;;;;3.67;3.67;;;;;;;;5016190;28;45520;-74
2023/07/20 09:56:08;;;;;;;;;2.67;2.00;;;;;;;;5015960;28;45596;-73
2023/07/20 09:58:34;;;;;;;;;1.00;1.00;;;;;;;;4997719;28;45722;-75
2023/07/20 10:01:02;;;;;;;;;2.00;1.00;;;;;;;;5021150;28;45404;-74
2023/07/20 10:03:29;;;;;;;;;0.00;0.00;;;;;;;;5009768;28;45603;-75
2023/07/20 10:05:56;;;;;;;;;1.67;0.33;;;;;;;;5011994;28;45845;-73
2023/07/20 10:08:24;;;;;;;;;2.00;2.00;;;;;;;;4991132;28;45468;-74
2023/07/20 10:10:49;;;;;;;;;0.00;0.00;;;;;;;;5018565;28;45605;-73
2023/07/20 10:13:17;;;;;;;;;0.00;0.00;;;;;;;;5001876;28;45592;-73
2023/07/20 10:15:54;;;;;;;;;1.67;1.67;;;;;;;;5011931;28;46508;-73
2023/07/20 10:18:20;;;;;;;;;2.00;1.00;;;;;;;;4989250;28;45722;-74
2023/07/20 10:20:46;;;;;;;;;1.00;1.00;;;;;;;;4984040;28;46140;-73
2023/07/20 10:23:12;;;;;;;;;1.00;1.00;;;;;;;;5010893;28;45555;-73
2023/07/20 10:25:38;;;;;;;;;3.67;2.00;;;;;;;;5006255;28;46488;-74
2023/07/20 10:28:06;;;;;;;;;3.00;2.00;;;;;;;;5017174;28;45538;-75
2023/07/20 10:30:33;;;;;;;;;1.00;1.00;;;;;;;;5006951;28;45734;-74
2023/07/20 10:33:02;;;;;;;;;4.00;2.00;;;;;;;;5008713;28;45773;-73
2023/07/20 10:35:27;;;;;;;;;1.00;1.00;;;;;;;;5008670;28;46306;-75
2023/07/20 10:37:53;;;;;;;;;1.33;1.33;;;;;;;;5010612;28;45684;-74
2023/07/20 10:40:28;;;;;;;;;2.00;2.00;;;;;;;;5007323;28;45581;-73
2023/07/20 10:42:57;;;;;;;;;2.00;2.00;;;;;;;;5011757;28;45962;-73
2023/07/20 10:45:32;;;;;;;;;4.33;3.00;;;;;;;;5009568;28;46402;-75
2023/07/20 10:47:57;;;;;;;;;3.33;2.00;;;;;;;;5017708;28;45842;-73
2023/07/20 10:50:23;;;;;;;;;4.00;3.00;;;;;;;;4997457;28;45543;-74
2023/07/20 10:53:04;;;;;;;;;2.00;2.00;;;;;;;;5010898;28;45988;-75
2023/07/20 10:55:38;;;;;;;;;3.67;3.00;;;;;;;;5012173;28;45813;-74
2023/07/20 10:58:06;;;;;;;;;1.00;1.00;;;;;;;;5012904;28;46499;-75
2023/07/20 11:00:32;;;;;;;;;3.00;3.00;;;;;;;;4992211;28;46051;-73
2023/07/20 11:02:59;;;;;;;;;1.00;1.00;;;;;;;;5012736;28;45466;-74
2023/07/20 11:05:37;;;;;;;;;2.33;2.33;;;;;;;;5019603;28;45750;-74
2023/07/20 11:08:12;;;;;;;;;0.50;0.00;;;;;;;;5014010;28;45476;-73
2023/07/20 11:10:38;;;;;;;;;1.00;1.00;;;;;;;;4999081;28;45477;-75
2023/07/20 11:13:16;;;;;;;;;1.00;1.00;;;;;;;;5014260;28;46204;-74
2023/07/20 11:15:46;;;;;;;;;0.75;0.75;;;;;;;;5009456;28;45642;-76
2023/07/20 11:18:11;;;;;;;;;2.00;2.00;;;;;;;;5010159;28;45720;-75
2023/07/20 11:20:37;;;;;;;;;2.00;2.00;;;;;;;;5010223;28;45431;-74
2023/07/20 11:23:02;;;;;;;;;2.00;2.00;;;;;;;;5014239;28;45657;-73
2023/07/20 11:25:35;;;;;;;;;3.33;3.33;;;;;;;;5011205;28;45492;-72
2023/07/20 11:28:01;;;;;;;;;3.00;2.00;;;;;;;;5016900;28;45632;-73
2023/07/20 11:30:32;;;;;;;;;2.00;0.75;;;;;;;;5020592;28;45656;-74
2023/07/20 11:32:57;;;;;;;;;4.00;2.00;;;;;;;;5005216;28;45586;-74
2023/07/20 11:35:22;;;;;;;;;1.00;1.00;;;;;;;;5000221;28;48294;-73
2023/07/20 11:37:47;;;;;;;;;1.75;1.75;;;;;;;;5018389;28;45505;-73
2023/07/20 11:40:13;;;;;;;;;1.00;1.00;;;;;;;;5004118;28;45936;-73
2023/07/20 11:42:38;;;;;;;;;3.00;1.00;;;;;;;;5011929;28;45828;-72
2023/07/20 11:45:04;;;;;;;;;1.00;1.00;;;;;;;;5021564;28;45999;-73
2023/07/20 11:47:30;;;;;;;;;2.00;1.00;;;;;;;;5020046;28;45572;-73
2023/07/20 11:50:02;;;;;;;;;2.00;2.00;;;;;;;;5017447;28;45673;-74
2023/07/20 11:52:27;;;;;;;;;3.25;1.25;;;;;;;;5019685;28;45425;-76
2023/07/20 11:54:53;;;;;;;;;3.25;2.25;;;;;;;;5022672;28;45879;-73
2023/07/20 11:57:21;;;;;;;;;1.00;1.00;;;;;;;;5020662;28;45815;-73
2023/07/20 11:59:54;;;;;;;;;1.00;1.00;;;;;;;;5022216;28;45749;-73
2023/07/20 12:02:19;;;;;;;;;0.00;0.00;;;;;;;;5012636;28;45676;-74
2023/07/20 12:04:45;;;;;;;;;1.75;1.75;;;;;;;;5018740;28;45823;-73
2023/07/20 12:07:11;;;;;;;;;2.75;2.75;;;;;;;;5012646;28;45835;-73
2023/07/20 12:09:37;;;;;;;;;9.75;7.25;;;;;;;;5010295;28;45470;-73
2023/07/20 12:12:09;;;;;;;;;0.25;0.25;;;;;;;;5014545;28;45568;-73
2023/07/20 12:14:35;;;;;;;;;2.00;2.00;;;;;;;;4998304;28;47766;-74
2023/07/20 12:17:00;;;;;;;;;1.00;1.00;;;;;;;;5018520;28;45436;-73
2023/07/20 12:19:25;;;;;;;;;1.00;1.00;;;;;;;;4998841;28;45485;-74
2023/07/20 12:21:57;;;;;;;;;1.25;1.25;;;;;;;;5018387;28;45385;-74
2023/07/20 12:24:23;;;;;;;;;1.75;1.00;;;;;;;;5015453;28;45714;-73
2023/07/20 12:26:56;;;;;;;;;1.50;1.00;;;;;;;;4996256;28;45529;-74
2023/07/20 12:29:21;;;;;;;;;1.00;1.00;;;;;;;;5018070;28;45765;-74
2023/07/20 12:31:46;;;;;;;;;1.00;1.00;;;;;;;;4994980;28;46789;-75
2023/07/20 12:34:12;;;;;;;;;2.00;1.00;;;;;;;;4995033;28;47707;-73
2023/07/20 12:36:37;;;;;;;;;1.25;1.25;;;;;;;;5012870;28;45617;-73
2023/07/20 12:39:03;;;;;;;;;0.25;0.25;;;;;;;;4997093;28;45451;-74
2023/07/20 12:41:28;;;;;;;;;1.00;1.00;;;;;;;;5009997;28;45585;-75
2023/07/20 12:43:57;;;;;;;;;1.00;1.00;;;;;;;;5016540;28;46470;-74
2023/07/20 12:46:23;;;;;;;;;0.75;0.75;;;;;;;;5010599;28;45890;-73
2023/07/20 12:48:49;;;;;;;;;2.00;1.00;;;;;;;;5019248;28;45520;-73
2023/07/20 12:51:14;;;;;;;;;1.25;1.25;;;;;;;;5009800;28;45890;-74
2023/07/20 12:53:39;;;;;;;;;3.50;1.25;;;;;;;;5009969;28;46450;-73
2023/07/20 12:56:05;;;;;;;;;1.00;1.00;;;;;;;;5009700;28;45743;-75
2023/07/20 12:58:30;;;;;;;;;0.00;0.00;;;;;;;;5022423;28;45794;-75
2023/07/20 13:00:55;;;;;;;;;4.00;2.25;;;;;;;;5014811;28;45686;-73
2023/07/20 13:03:21;;;;;;;;;2.25;1.75;;;;;;;;5016391;28;46268;-75
2023/07/20 13:05:47;;;;;;;;;2.00;2.00;;;;;;;;5012573;28;45542;-74
2023/07/20 13:08:12;;;;;;;;;4.00;3.50;;;;;;;;5008283;28;45772;-74
2023/07/20 13:10:38;;;;;;;;;4.75;3.50;;;;;;;;5008300;28;45505;-73
2023/07/20 13:13:04;;;;;;;;;1.00;1.00;;;;;;;;4999286;28;46304;-73
2023/07/20 13:15:33;;;;;;;;;3.00;3.00;;;;;;;;5021175;28;45916;-74
2023/07/20 13:17:58;;;;;;;;;1.00;1.00;;;;;;;;5025850;28;45751;-74
2023/07/20 13:20:24;;;;;;;;;0.75;0.75;;;;;;;;5017366;28;45575;-75
2023/07/20 13:22:49;;;;;;;;;2.00;1.00;;;;;;;;5008855;28;46032;-73
2023/07/20 13:25:14;;;;;;;;;0.75;0.75;;;;;;;;5009178;28;45466;-73
2023/07/20 13:27:40;;;;;;;;;1.00;1.00;;;;;;;;5009724;28;45644;-74
2023/07/20 13:30:07;;;;;;;;;2.00;1.75;;;;;;;;5014557;28;46073;-73
2023/07/20 13:32:33;;;;;;;;;1.00;1.00;;;;;;;;5000993;28;46050;-76
2023/07/20 13:34:58;;;;;;;;;1.00;1.00;;;;;;;;5007864;28;45519;-72
2023/07/20 13:37:24;;;;;;;;;1.00;1.00;;;;;;;;4991779;28;45569;-73
2023/07/20 13:39:49;;;;;;;;;2.25;2.25;;;;;;;;5011433;28;45730;-73
2023/07/20 13:42:14;;;;;;;;;0.25;0.25;;;;;;;;5016466;28;45563;-74
2023/07/20 13:44:40;;;;;;;;;5.00;5.00;;;;;;;;5007865;28;46051;-73
2023/07/20 13:47:05;;;;;;;;;1.00;1.00;;;;;;;;5009252;28;45523;-73
2023/07/20 13:49:31;;;;;;;;;2.25;2.25;;;;;;;;5010720;28;45510;-73
2023/07/20 13:52:06;;;;;;;;;0.50;0.50;;;;;;;;5012987;28;46004;-74
2023/07/20 13:54:31;;;;;;;;;2.00;2.00;;;;;;;;5002897;28;46011;-73
2023/07/20 13:56:56;;;;;;;;;1.00;1.00;;;;;;;;5016284;28;45458;-73
2023/07/20 13:59:22;;;;;;;;;4.50;1.50;;;;;;;;5010333;28;45464;-74
2023/07/20 14:01:48;;;;;;;;;3.00;2.50;;;;;;;;5011400;28;46868;-73
2023/07/20 14:04:13;;;;;;;;;3.25;2.00;;;;;;;;5012280;28;45836;-73
2023/07/20 14:06:38;;;;;;;;;1.00;1.00;;;;;;;;5009207;28;45543;-74
2023/07/20 14:09:03;;;;;;;;;0.00;0.00;;;;;;;;5013310;28;45644;-73
2023/07/20 14:11:29;;;;;;;;;2.75;2.75;;;;;;;;5000605;28;47609;-74
2023/07/20 14:13:54;;;;;;;;;2.00;2.00;;;;;;;;5021927;28;45672;-74
2023/07/20 14:16:20;;;;;;;;;4.25;3.25;;;;;;;;5012197;28;45889;-74
2023/07/20 14:18:47;;;;;;;;;11.00;7.75;;;;;;;;5016502;28;45541;-74
2023/07/20 14:21:12;;;;;;;;;2.00;2.00;;;;;;;;5008235;28;45901;-73
2023/07/20 14:23:38;;;;;;;;;3.00;3.00;;;;;;;;4996843;28;45828;-73
2023/07/20 14:26:05;;;;;;;;;0.75;0.75;;;;;;;;5024807;28;45832;-72
2023/07/20 14:28:30;;;;;;;;;10.00;8.67;;;;;;;;5005241;28;45991;-73
2023/07/20 14:30:55;;;;;;;;;3.33;1.00;;;;;;;;5018363;28;46504;-73
2023/07/20 14:33:21;;;;;;;;;1.00;1.00;;;;;;;;5012155;28;45878;-71
2023/07/20 14:35:47;;;;;;;;;2.00;2.00;;;;;;;;5001928;28;45928;-72
2023/07/20 14:38:12;;;;;;;;;1.75;1.75;;;;;;;;5009499;28;45785;-73